KFAY/FAY METAR and TAF weather

Enter ICAO airport designator
Station Type Date Time Source
KFAY METAR 2021/06/24 04:53 UTC NOAA

KFAY 240453Z 08003KT 10SM CLR 18/15 A3025 RMK AO2 SLP238 T01830150 402830178


Station Type Date Time Source
KFAY Decoded METAR 2021/06/24 04:53 UTC NOAA

FAYETTEVILLE REGIONAL AIRPORT , NC, United States (KFAY) 34-59N 078-53W 55M
Jun 24, 2021 - 12:53 AM EDT / 2021.06.24 0453 UTC
Wind: from the E (080 degrees) at 3 MPH (3 KT):0
Visibility: 10 mile(s):0
Sky conditions: clear
Temperature: 64.9 F (18.3 C)
Dew Point: 59.0 F (15.0 C)
Relative Humidity: 81%
Pressure (altimeter): 30.25 in. Hg (1024 hPa)
ob: KFAY 240453Z 08003KT 10SM CLR 18/15 A3025 RMK AO2 SLP238 T01830150 402830178
cycle: 5

Station Type Date Time Source
KFAY TAF 2021/06/23 18:39 UTC NOAA

TAF KFAY 231736Z 2318/2418 05008G14KT P6SM SKC
FM240200 08004KT P6SM SKC

Example: see airport list